Flight Track Log - Related Links

Times and Time Zones

All times are in EDT time to prevent confusion due to time zone crossing. See the CCA1300 flight status page for this flight to view local times or setup timezone preferences in your user account.

Time Position Orientation Groundspeed Altitude Reporting Facility
EDT Latitude Longitude Course Direction KTS MPH feet Rate Location/Type
Mon 11:31:00 AM 23.2419 114.3288 38° Northeast  Level Estimated
Mon 11:32:00 AM 23.3279 114.4030 38° Northeast  Level Estimated
Mon 11:33:00 AM 23.4137 114.4772 38° Northeast  Level Estimated
Mon 11:34:00 AM 23.4996 114.5516 38° Northeast  Level Estimated
Mon 11:35:00 AM 23.5854 114.6260 38° Northeast  Level Estimated
Mon 11:36:00 AM 23.6712 114.7006 39° Northeast  Level Estimated
Mon 11:37:00 AM 23.7570 114.7752 39° Northeast  Level Estimated
Mon 11:38:00 AM 23.8427 114.8500 39° Northeast  Level Estimated
Mon 11:39:00 AM 23.9284 114.9248 39° Northeast  Level Estimated
Mon 11:40:00 AM 24.0140 114.9997 39° Northeast  Level Estimated
Mon 11:41:00 AM 24.0996 115.0748 39° Northeast  Level Estimated
Mon 11:42:00 AM 24.1852 115.1499 39° Northeast  Level Estimated
Mon 11:43:00 AM 24.2707 115.2251 39° Northeast  Level Estimated
Mon 11:44:00 AM 24.3562 115.3005 39° Northeast  Level Estimated
Mon 11:45:00 AM 24.4417 115.3759 39° Northeast  Level Estimated
Mon 11:46:00 AM 24.5271 115.4514 39° Northeast  Level Estimated
Mon 11:47:00 AM 24.6124 115.5271 39° Northeast  Level Estimated
Mon 11:48:00 AM 24.6978 115.6029 39° Northeast  Level Estimated
Mon 11:49:00 AM 24.7831 115.6787 39° Northeast  Level Estimated
Mon 11:50:00 AM 24.8684 115.7547 39° Northeast  Level Estimated
Mon 11:51:00 AM 24.9536 115.8307 39° Northeast  Level Estimated
Mon 11:52:00 AM 25.0388 115.9069 39° Northeast  Level Estimated
Mon 11:53:00 AM 25.1239 115.9832 39° Northeast  Level Estimated
Mon 11:54:00 AM 25.2090 116.0595 39° Northeast  Level Estimated
Mon 11:55:00 AM 25.2941 116.1360 39° Northeast  Level Estimated
Mon 11:56:00 AM 25.3792 116.2126 39° Northeast  Level Estimated
Mon 11:57:00 AM 25.4642 116.2893 39° Northeast  Level Estimated
Mon 11:58:00 AM 25.5491 116.3661 39° Northeast  Level Estimated
Mon 11:59:00 AM 25.6340 116.4430 39° Northeast  Level Estimated
Mon 12:00:00 PM 25.7189 116.5201 39° Northeast  Level Estimated
Mon 12:01:00 PM 25.8037 116.5972 39° Northeast  Level Estimated
Mon 12:02:00 PM 25.8885 116.6745 39° Northeast  Level Estimated
Mon 12:03:00 PM 25.9733 116.7518 39° Northeast  Level Estimated
Mon 12:04:00 PM 26.0580 116.8293 39° Northeast  Level Estimated
Mon 12:05:00 PM 26.1427 116.9069 39° Northeast  Level Estimated
Mon 12:06:00 PM 26.2273 116.9846 39° Northeast  Level Estimated
Mon 12:07:00 PM 26.3119 117.0624 40° Northeast  Level Estimated
Mon 12:08:00 PM 26.3964 117.1403 40° Northeast  Level Estimated
Mon 12:09:00 PM 26.4809 117.2183 40° Northeast  Level Estimated
Mon 12:10:00 PM 26.5654 117.2965 40° Northeast  Level Estimated
Mon 12:11:00 PM 26.6498 117.3747 40° Northeast  Level Estimated
Mon 12:12:00 PM 26.7342 117.4531 40° Northeast  Level Estimated
Mon 12:13:00 PM 26.8185 117.5316 40° Northeast  Level Estimated
Mon 12:14:00 PM 26.9028 117.6102 40° Northeast  Level Estimated
Mon 12:15:00 PM 26.9870 117.6890 40° Northeast  Level Estimated
Mon 12:16:00 PM 27.0712 117.7678 40° Northeast  Level Estimated
Mon 12:17:00 PM 27.1554 117.8468 40° Northeast  Level Estimated
Mon 12:18:00 PM 27.2395 117.9259 40° Northeast  Level Estimated
Mon 12:19:00 PM 27.3236 118.0051 40° Northeast  Level Estimated
Mon 12:20:00 PM 27.4076 118.0844 40° Northeast  Level Estimated
Mon 12:21:00 PM 27.4916 118.1639 40° Northeast  Level Estimated
Mon 12:22:00 PM 27.5755 118.2434 40° Northeast  Level Estimated
Mon 12:23:00 PM 27.6594 118.3231 40° Northeast  Level Estimated
Mon 12:24:00 PM 27.7432 118.4029 40° Northeast  Level Estimated
Mon 12:25:00 PM 27.8270 118.4829 40° Northeast  Level Estimated
Mon 12:26:00 PM 27.9108 118.5629 40° Northeast  Level Estimated
Mon 12:27:00 PM 27.9945 118.6431 40° Northeast  Level Estimated
Mon 12:28:00 PM 28.0781 118.7234 40° Northeast  Level Estimated
Mon 12:29:00 PM 28.1617 118.8039 40° Northeast  Level Estimated
Mon 12:30:00 PM 28.2453 118.8844 40° Northeast  Level Estimated
Mon 12:31:00 PM 28.3288 118.9651 40° Northeast  Level Estimated
Mon 12:32:00 PM 28.4123 119.0459 40° Northeast  Level Estimated
Mon 12:33:00 PM 28.4957 119.1269 40° Northeast  Level Estimated
Mon 12:34:00 PM 28.5791 119.2079 40° Northeast  Level Estimated
Mon 12:35:00 PM 28.6624 119.2891 41° Northeast  Level Estimated
Mon 12:36:00 PM 28.7457 119.3705 41° Northeast  Level Estimated
Mon 12:37:00 PM 28.8289 119.4519 41° Northeast  Level Estimated
Mon 12:38:00 PM 28.9121 119.5335 41° Northeast  Level Estimated
Mon 12:39:00 PM 28.9952 119.6152 41° Northeast  Level Estimated
Mon 12:40:00 PM 29.0783 119.6971 41° Northeast  Level Estimated
Mon 12:41:00 PM 29.1613 119.7791 41° Northeast  Level Estimated
Mon 12:42:00 PM 29.2443 119.8612 41° Northeast  Level Estimated
Mon 12:43:00 PM 29.3272 119.9434 41° Northeast  Level Estimated
Mon 12:44:00 PM 29.4101 120.0258 41° Northeast  Level Estimated
Mon 12:45:00 PM 29.4929 120.1083 41° Northeast  Level Estimated
Mon 12:46:00 PM 29.5757 120.1910 41° Northeast  Level Estimated
Mon 12:47:00 PM 29.6584 120.2737 41° Northeast  Level Estimated
Mon 12:48:00 PM 29.7411 120.3567 41° Northeast  Level Estimated
Mon 12:49:00 PM 29.8237 120.4397 41° Northeast  Level Estimated
Mon 12:50:00 PM 29.9063 120.5229 41° Northeast  Level Estimated
Mon 12:51:00 PM 29.9888 120.6062 41° Northeast  Level Estimated
Mon 12:52:00 PM 30.0713 120.6897 41° Northeast  Level Estimated
Mon 12:53:00 PM 30.1537 120.7733 41° Northeast  Level Estimated
Mon 12:54:00 PM 30.2360 120.8571 41° Northeast  Level Estimated
Mon 12:55:00 PM 30.3183 120.9410 41° Northeast  Level Estimated
Mon 12:56:00 PM 30.4006 121.0250 41° Northeast  Level Estimated
Mon 12:57:00 PM 30.4828 121.1092 41° Northeast  Level Estimated
Mon 12:58:00 PM 30.5649 121.1935 41° Northeast  Level Estimated
Mon 12:59:00 PM 30.6470 121.2780 42° Northeast  Level Estimated
Mon 01:00:00 PM 30.7290 121.3626 42° Northeast  Level Estimated
Mon 01:01:00 PM 30.8110 121.4473 42° Northeast  Level Estimated
Mon 01:02:00 PM 30.8930 121.5322 42° Northeast  Level Estimated
Mon 01:03:00 PM 30.9748 121.6172 42° Northeast  Level Estimated
Mon 01:04:00 PM 31.0566 121.7024 42° Northeast  Level Estimated
Mon 01:05:00 PM 31.1384 121.7878 42° Northeast  Level Estimated
Mon 01:06:00 PM 31.1428 121.7924 42° Northeast  Level Estimated
Mon 01:07:00 PM 31.1428 121.7924 North  Level Estimated
Mon 01:08:00 PM 31.1428 121.7924 North  Level Estimated
Mon 01:09:00 PM 31.1428 121.7924 North  Level Estimated
Mon 01:10:00 PM 31.1428 121.7924 North  Level Estimated
Mon 01:11:00 PM 31.1428 121.7924 North  Level Estimated
Mon 01:12:00 PM 31.1428 121.7924 North  Level Estimated
Mon 01:13:00 PM 31.1428 121.7924 North  Level Estimated
Mon 01:14:00 PM 31.1428 121.7924 North  Level Estimated

Login

Don't have an account? Register now (free) for customized features, flight alerts, and more!